Time;durP1;ratioP1;P1;durP2;ratioP2;P2;SDS_P1;SDS_P2;PMS_P1;PMS_P2;Temp;Humidity;BMP_temperature;BMP_pressure;BME280_temperature;BME280_humidity;BME280_pressure;Samples;Min_cycle;Max_cycle;Signal;HPM_P1;HPM_P2
2021/03/23 00:00:52;;;;;;;18.13;13.53;;;6.80;99.90;;;;;;5033459;28;20432;-68
2021/03/23 00:03:30;;;;;;;18.37;13.00;;;6.70;99.90;;;;;;5013586;28;20430;-67
2021/03/23 00:05:56;;;;;;;22.90;13.87;;;6.70;99.90;;;;;;5013595;28;20812;-65
2021/03/23 00:08:25;;;;;;;20.90;13.63;;;6.70;99.90;;;;;;4995704;28;20517;-67
2021/03/23 00:10:52;;;;;;;19.83;13.60;;;6.70;99.90;;;;;;5013557;28;20513;-65
2021/03/23 00:13:18;;;;;;;19.53;13.77;;;6.60;99.90;;;;;;5013227;28;20510;-67
2021/03/23 00:15:44;;;;;;;21.33;14.03;;;6.60;99.90;;;;;;5013253;28;20454;-67
2021/03/23 00:18:12;;;;;;;21.00;13.63;;;6.60;99.90;;;;;;5027163;28;20438;-68
2021/03/23 00:20:38;;;;;;;24.80;14.50;;;6.60;99.90;;;;;;5013070;28;20245;-67
2021/03/23 00:23:05;;;;;;;17.97;13.23;;;6.50;99.90;;;;;;5029378;28;20847;-67
2021/03/23 00:25:31;;;;;;;19.13;13.73;;;6.50;99.90;;;;;;5032692;28;20912;-66
2021/03/23 00:27:57;;;;;;;17.67;13.67;;;6.60;99.90;;;;;;5032935;28;20414;-67
2021/03/23 00:30:23;;;;;;;20.07;13.33;;;6.60;99.90;;;;;;5020799;28;20450;-67
2021/03/23 00:32:49;;;;;;;20.27;13.30;;;6.60;99.90;;;;;;5023200;28;20199;-65
2021/03/23 00:35:15;;;;;;;20.07;12.70;;;6.50;99.90;;;;;;5032789;28;20211;-67
2021/03/23 00:37:41;;;;;;;19.20;13.03;;;6.40;99.90;;;;;;5032693;28;20588;-68
2021/03/23 00:40:13;;;;;;;19.23;12.40;;;6.50;99.90;;;;;;5032532;28;20445;-67
2021/03/23 00:42:39;;;;;;;21.73;13.03;;;6.40;99.90;;;;;;5032168;28;20171;-67
2021/03/23 00:45:06;;;;;;;16.57;12.13;;;6.50;99.90;;;;;;5032486;28;20870;-67
2021/03/23 00:47:31;;;;;;;17.83;13.47;;;6.40;99.90;;;;;;5032547;28;20180;-66
2021/03/23 00:49:57;;;;;;;17.53;11.93;;;6.50;99.90;;;;;;5025433;28;20422;-66
2021/03/23 00:52:23;;;;;;;18.93;12.20;;;6.50;99.90;;;;;;5032198;28;20183;-67
2021/03/23 00:54:51;;;;;;;17.33;12.40;;;6.50;99.90;;;;;;5032068;28;20195;-67
2021/03/23 00:57:17;;;;;;;21.07;12.10;;;6.50;99.90;;;;;;5031980;28;20187;-67
2021/03/23 00:59:42;;;;;;;16.13;12.03;;;6.40;99.90;;;;;;5031673;28;20415;-66
2021/03/23 01:02:08;;;;;;;18.93;12.40;;;6.40;99.90;;;;;;5032272;28;20569;-66
2021/03/23 01:04:34;;;;;;;16.67;12.20;;;6.40;99.90;;;;;;5031948;28;20203;-68
2021/03/23 01:06:59;;;;;;;19.53;12.50;;;6.40;99.90;;;;;;5032692;28;20545;-67
2021/03/23 01:09:25;;;;;;;17.57;12.30;;;6.40;99.90;;;;;;4996380;28;20184;-66
2021/03/23 01:11:50;;;;;;;18.83;12.80;;;6.40;99.90;;;;;;5030656;28;20626;-67
2021/03/23 01:14:16;;;;;;;17.73;12.53;;;6.30;99.90;;;;;;5032193;28;20243;-66
2021/03/23 01:16:42;;;;;;;19.23;13.23;;;6.30;99.90;;;;;;5020761;28;20656;-67
2021/03/23 01:19:07;;;;;;;15.77;11.93;;;6.40;99.90;;;;;;5012343;28;20601;-67
2021/03/23 01:21:34;;;;;;;17.43;11.60;;;6.50;99.90;;;;;;5011883;28;20172;-66
2021/03/23 01:23:59;;;;;;;18.17;12.23;;;6.60;99.90;;;;;;5012197;28;20184;-67
2021/03/23 01:26:25;;;;;;;19.83;13.13;;;6.50;99.90;;;;;;5012172;28;20477;-67
2021/03/23 01:28:50;;;;;;;18.83;12.90;;;6.40;99.90;;;;;;4994339;28;22420;-67
2021/03/23 01:31:16;;;;;;;16.97;13.00;;;6.40;99.90;;;;;;5026141;28;20546;-66
2021/03/23 01:33:41;;;;;;;17.03;11.90;;;6.30;99.90;;;;;;5023281;28;20219;-67
2021/03/23 01:36:07;;;;;;;16.20;12.37;;;6.20;99.90;;;;;;5011813;28;20231;-66
2021/03/23 01:38:33;;;;;;;19.20;12.23;;;6.20;99.90;;;;;;5010705;28;20631;-66
2021/03/23 01:41:00;;;;;;;16.93;11.53;;;6.20;99.90;;;;;;4994180;28;20184;-68
2021/03/23 01:43:29;;;;;;;17.50;12.73;;;6.10;99.90;;;;;;5011696;28;20183;-67
2021/03/23 01:46:00;;;;;;;17.17;11.97;;;6.10;99.90;;;;;;5011387;28;22350;-66
2021/03/23 01:48:32;;;;;;;16.53;11.57;;;6.10;99.90;;;;;;5011707;28;20419;-67
2021/03/23 01:51:06;;;;;;;19.67;12.50;;;6.00;99.90;;;;;;5011079;28;20819;-67
2021/03/23 01:53:43;;;;;;;15.63;11.47;;;6.10;99.90;;;;;;5011918;28;20983;-67
2021/03/23 01:56:10;;;;;;;15.70;11.80;;;6.00;99.90;;;;;;5011390;28;20450;-65
2021/03/23 01:58:39;;;;;;;22.47;13.17;;;6.00;99.90;;;;;;5011476;28;20518;-66
2021/03/23 02:01:09;;;;;;;16.67;11.57;;;6.10;99.90;;;;;;5011400;28;20435;-68
2021/03/23 02:03:34;;;;;;;16.23;11.53;;;6.10;99.90;;;;;;5010377;28;20976;-68
2021/03/23 02:06:02;;;;;;;17.33;12.43;;;6.10;99.90;;;;;;5011550;28;20515;-68
2021/03/23 02:08:29;;;;;;;15.67;11.67;;;6.20;99.90;;;;;;5011169;28;20181;-68
2021/03/23 02:10:57;;;;;;;17.87;12.80;;;6.10;99.90;;;;;;5010448;28;20489;-67
2021/03/23 02:13:24;;;;;;;15.30;11.13;;;6.10;99.90;;;;;;5011132;28;20473;-65
2021/03/23 02:15:49;;;;;;;18.07;12.20;;;6.00;99.90;;;;;;5011153;28;21187;-66
2021/03/23 02:18:18;;;;;;;20.17;12.10;;;6.00;99.90;;;;;;5010933;28;20427;-67
2021/03/23 02:20:57;;;;;;;19.20;12.23;;;6.10;99.90;;;;;;5010993;28;20176;-69
2021/03/23 02:23:32;;;;;;;17.77;11.20;;;6.00;99.90;;;;;;5010928;28;20420;-65
2021/03/23 02:25:58;;;;;;;15.80;10.83;;;6.00;99.90;;;;;;5011133;28;20435;-67
2021/03/23 02:28:24;;;;;;;18.03;12.00;;;6.00;99.90;;;;;;5010837;28;20435;-67
2021/03/23 02:30:51;;;;;;;17.43;12.10;;;6.00;99.90;;;;;;5011085;28;20177;-67
2021/03/23 02:33:19;;;;;;;17.33;12.50;;;6.00;99.90;;;;;;5012212;28;20946;-67
2021/03/23 02:35:45;;;;;;;18.43;11.47;;;5.90;99.90;;;;;;5010631;28;20480;-68
2021/03/23 02:38:11;;;;;;;17.00;11.40;;;5.90;99.90;;;;;;5010975;28;20430;-67
2021/03/23 02:40:38;;;;;;;16.13;11.10;;;5.90;99.90;;;;;;5011385;28;20766;-66
2021/03/23 02:43:04;;;;;;;18.20;12.23;;;5.90;99.90;;;;;;5010611;28;20168;-68
2021/03/23 02:45:30;;;;;;;21.43;12.37;;;5.80;99.90;;;;;;5011306;28;20486;-67
2021/03/23 02:47:55;;;;;;;18.77;11.47;;;5.90;99.90;;;;;;5010442;28;20211;-66
2021/03/23 02:50:21;;;;;;;16.90;12.03;;;5.90;99.90;;;;;;5011079;28;20235;-67
2021/03/23 02:52:47;;;;;;;27.27;12.90;;;6.00;99.90;;;;;;5010577;28;20180;-65
2021/03/23 02:55:13;;;;;;;18.37;12.00;;;6.00;99.90;;;;;;5010484;28;20609;-68
2021/03/23 02:57:39;;;;;;;20.83;12.03;;;6.10;99.90;;;;;;5010696;28;20418;-66
2021/03/23 03:00:12;;;;;;;20.40;12.17;;;6.10;99.90;;;;;;5010636;28;20415;-66
2021/03/23 03:02:38;;;;;;;18.60;13.00;;;6.10;99.90;;;;;;5010604;28;20177;-66
2021/03/23 03:05:06;;;;;;;16.63;11.40;;;6.00;99.90;;;;;;5010670;28;20821;-67
2021/03/23 03:07:32;;;;;;;17.07;12.40;;;6.10;99.90;;;;;;5010537;28;20184;-67
2021/03/23 03:09:57;;;;;;;19.83;12.63;;;6.20;99.90;;;;;;5010448;28;20502;-66
2021/03/23 03:12:23;;;;;;;17.37;11.40;;;6.20;99.90;;;;;;5010247;28;20184;-66
2021/03/23 03:14:48;;;;;;;20.97;12.97;;;6.20;99.90;;;;;;5010522;28;20551;-67
2021/03/23 03:17:14;;;;;;;19.57;12.20;;;6.20;99.90;;;;;;5010453;28;20176;-67
2021/03/23 03:19:40;;;;;;;20.67;12.37;;;6.10;99.90;;;;;;5010724;28;20187;-67
2021/03/23 03:22:05;;;;;;;17.10;11.37;;;6.00;99.90;;;;;;5011954;28;20180;-66
2021/03/23 03:24:31;;;;;;;20.90;12.40;;;6.10;99.90;;;;;;5014320;28;20281;-67
2021/03/23 03:26:56;;;;;;;19.37;12.20;;;6.10;99.90;;;;;;5014461;28;20503;-66
2021/03/23 03:29:22;;;;;;;15.43;11.93;;;6.10;99.90;;;;;;5014301;28;20180;-67
2021/03/23 03:31:48;;;;;;;16.40;11.17;;;6.10;99.90;;;;;;5014277;28;20283;-65
2021/03/23 03:34:13;;;;;;;16.47;11.70;;;6.00;99.90;;;;;;5006643;28;20205;-67
2021/03/23 03:36:39;;;;;;;14.40;11.27;;;6.10;99.90;;;;;;5014264;28;20291;-67
2021/03/23 03:39:05;;;;;;;16.60;11.03;;;6.10;99.90;;;;;;5013914;28;20651;-66
2021/03/23 03:41:32;;;;;;;22.27;12.43;;;6.10;99.90;;;;;;4994334;28;20228;-67
2021/03/23 03:43:58;;;;;;;18.07;11.70;;;6.10;99.90;;;;;;4994413;28;20416;-66
2021/03/23 03:46:23;;;;;;;15.43;11.53;;;6.00;99.90;;;;;;4994679;28;20512;-66
2021/03/23 03:48:49;;;;;;;19.33;11.83;;;6.00;99.90;;;;;;4994200;28;20631;-67
2021/03/23 03:51:15;;;;;;;20.50;12.57;;;6.00;99.90;;;;;;4994404;28;20184;-68
2021/03/23 03:53:40;;;;;;;16.87;11.07;;;6.00;99.90;;;;;;4976904;28;20175;-67
2021/03/23 03:56:07;;;;;;;19.33;11.33;;;5.90;99.90;;;;;;4994089;28;20259;-67
2021/03/23 03:58:33;;;;;;;19.27;12.60;;;6.00;99.90;;;;;;4994320;28;20181;-68
2021/03/23 04:00:58;;;;;;;16.20;11.67;;;6.00;99.90;;;;;;4994109;28;20496;-66
2021/03/23 04:03:27;;;;;;;20.43;12.37;;;5.90;99.90;;;;;;4994270;28;20511;-67
2021/03/23 04:05:54;;;;;;;16.37;12.23;;;5.90;99.90;;;;;;4994017;28;20212;-67
2021/03/23 04:08:25;;;;;;;17.33;11.73;;;5.90;99.90;;;;;;4994119;28;20424;-67
2021/03/23 04:10:52;;;;;;;18.60;11.83;;;5.90;99.90;;;;;;4993974;28;20910;-67
2021/03/23 04:13:19;;;;;;;23.27;11.77;;;5.90;99.90;;;;;;4994101;28;20420;-67
2021/03/23 04:15:47;;;;;;;16.27;11.00;;;6.00;99.90;;;;;;4993849;28;20510;-67
2021/03/23 04:18:15;;;;;;;16.80;11.37;;;6.00;99.90;;;;;;4993645;28;20507;-68
2021/03/23 04:20:41;;;;;;;19.97;12.77;;;5.90;99.90;;;;;;4993902;28;20413;-67
2021/03/23 04:23:09;;;;;;;18.87;11.37;;;5.90;99.90;;;;;;4993394;28;20902;-67
2021/03/23 04:25:35;;;;;;;16.23;11.13;;;5.90;99.90;;;;;;4993649;28;20189;-66
2021/03/23 04:28:01;;;;;;;18.90;11.93;;;5.90;99.90;;;;;;4993320;28;20416;-66
2021/03/23 04:30:29;;;;;;;17.60;13.17;;;6.00;99.90;;;;;;4993680;28;20177;-67
2021/03/23 04:32:56;;;;;;;20.40;12.47;;;5.90;99.90;;;;;;4993564;28;20189;-66
2021/03/23 04:35:40;;;;;;;15.40;10.63;;;5.90;99.90;;;;;;5011165;28;20451;-67
2021/03/23 04:38:05;;;;;;;17.80;12.13;;;5.90;99.90;;;;;;5012318;28;20506;-66
2021/03/23 04:40:32;;;;;;;18.60;11.13;;;5.80;99.90;;;;;;5012920;28;20526;-67
2021/03/23 04:42:57;;;;;;;20.63;12.40;;;5.80;99.90;;;;;;5013127;28;20260;-67
2021/03/23 04:45:23;;;;;;;17.53;11.77;;;5.80;99.90;;;;;;5012607;28;20526;-66
2021/03/23 04:47:49;;;;;;;19.50;12.10;;;5.80;99.90;;;;;;5013052;28;20185;-67
2021/03/23 04:50:16;;;;;;;18.13;11.37;;;5.80;99.90;;;;;;5012957;28;20183;-67
2021/03/23 04:52:42;;;;;;;18.83;11.57;;;5.80;99.90;;;;;;5012868;28;20173;-65
2021/03/23 04:55:16;;;;;;;18.87;11.93;;;5.90;99.90;;;;;;5012802;28;20458;-66
2021/03/23 04:57:41;;;;;;;17.27;11.87;;;5.80;99.90;;;;;;5012595;28;20192;-67
2021/03/23 05:00:11;;;;;;;19.77;11.50;;;5.90;99.90;;;;;;5012739;28;20976;-68
2021/03/23 05:02:36;;;;;;;20.33;12.40;;;6.00;99.90;;;;;;5012205;28;20299;-67
2021/03/23 05:05:03;;;;;;;18.23;11.33;;;6.00;99.90;;;;;;5012681;28;20514;-67
2021/03/23 05:07:29;;;;;;;18.33;12.27;;;5.90;99.90;;;;;;5012443;28;20676;-68
2021/03/23 05:09:54;;;;;;;19.07;12.63;;;6.00;99.90;;;;;;5012425;28;20423;-67
2021/03/23 05:12:20;;;;;;;21.63;13.03;;;5.90;99.90;;;;;;5012519;28;20180;-66
2021/03/23 05:14:47;;;;;;;17.10;11.83;;;5.80;99.90;;;;;;5011995;28;20250;-67
2021/03/23 05:17:13;;;;;;;20.97;12.17;;;5.80;99.90;;;;;;5012451;28;20200;-66
2021/03/23 05:19:39;;;;;;;19.77;13.00;;;5.80;99.90;;;;;;5011971;28;20833;-68
2021/03/23 05:22:05;;;;;;;18.33;11.63;;;5.80;99.90;;;;;;4994727;28;20212;-67
2021/03/23 05:24:30;;;;;;;22.00;12.30;;;5.90;99.90;;;;;;5012215;28;20519;-66
2021/03/23 05:26:56;;;;;;;17.43;12.03;;;5.80;99.90;;;;;;5011709;28;20185;-67
2021/03/23 05:29:21;;;;;;;20.27;12.00;;;5.90;99.90;;;;;;5012093;28;20665;-67
2021/03/23 05:31:48;;;;;;;20.60;13.07;;;5.90;99.90;;;;;;5011675;28;20255;-66
2021/03/23 05:34:14;;;;;;;22.77;12.73;;;5.80;99.90;;;;;;5013313;28;20235;-66
2021/03/23 05:36:41;;;;;;;25.00;12.10;;;5.80;99.90;;;;;;5012062;28;20502;-65
2021/03/23 05:39:08;;;;;;;15.37;11.13;;;5.80;99.90;;;;;;5011767;28;20777;-68
2021/03/23 05:41:45;;;;;;;23.73;12.93;;;5.80;99.90;;;;;;5011930;28;20415;-65
2021/03/23 05:44:32;;;;;;;19.47;12.57;;;5.80;99.90;;;;;;5011739;28;20406;-66
2021/03/23 05:46:58;;;;;;;21.37;12.40;;;5.80;99.90;;;;;;5011796;28;20759;-66
2021/03/23 05:49:35;;;;;;;18.37;11.50;;;5.80;99.90;;;;;;4994057;28;20424;-67
2021/03/23 05:52:07;;;;;;;15.63;12.10;;;5.80;99.90;;;;;;5011762;28;21075;-65
2021/03/23 05:54:37;;;;;;;17.40;11.70;;;5.80;99.90;;;;;;5011309;28;20442;-66
2021/03/23 05:57:25;;;;;;;18.67;12.20;;;5.80;99.90;;;;;;5011413;28;20997;-66
2021/03/23 05:59:58;;;;;;;19.67;12.10;;;5.80;99.90;;;;;;5000752;28;20424;-68
2021/03/23 06:02:39;;;;;;;20.10;11.97;;;5.90;99.90;;;;;;5011611;28;20404;-66
2021/03/23 06:05:37;;;;;;;22.67;12.33;;;5.80;99.90;;;;;;5011275;28;20466;-66
2021/03/23 06:08:06;;;;;;;20.60;12.53;;;5.90;99.90;;;;;;5005779;28;20480;-67
2021/03/23 06:10:32;;;;;;;23.07;12.53;;;5.90;99.90;;;;;;5011172;28;20418;-68
2021/03/23 06:13:31;;;;;;;22.77;12.50;;;5.90;99.90;;;;;;5011331;28;20781;-68
2021/03/23 06:16:20;;;;;;;23.40;12.17;;;6.00;99.90;;;;;;4943555;28;20820;-68
2021/03/23 06:19:05;;;;;;;24.27;13.17;;;6.00;99.90;;;;;;4983264;28;20809;-68
2021/03/23 06:21:55;;;;;;;22.93;12.50;;;6.00;99.90;;;;;;5010966;28;20426;-65
2021/03/23 06:24:25;;;;;;;19.93;11.87;;;6.00;99.90;;;;;;5011068;28;20422;-66
2021/03/23 06:27:08;;;;;;;22.53;12.60;;;6.00;99.90;;;;;;5010621;28;20408;-65
2021/03/23 06:29:58;;;;;;;20.80;12.63;;;6.10;99.90;;;;;;5010996;28;20435;-66
2021/03/23 06:32:51;;;;;;;22.00;13.30;;;6.00;99.90;;;;;;5010763;28;20438;-68
2021/03/23 06:35:40;;;;;;;21.47;12.47;;;6.10;99.90;;;;;;5004013;28;20563;-67
2021/03/23 06:38:14;;;;;;;23.30;12.97;;;6.10;99.90;;;;;;5010756;28;20455;-68
2021/03/23 06:40:59;;;;;;;21.57;12.37;;;6.20;99.90;;;;;;5010744;28;20510;-67
2021/03/23 06:43:29;;;;;;;24.87;14.37;;;6.20;99.90;;;;;;5010525;28;20773;-67
2021/03/23 06:46:04;;;;;;;19.00;12.53;;;6.30;99.90;;;;;;5010229;28;20423;-66
2021/03/23 06:48:32;;;;;;;18.83;12.80;;;6.30;99.90;;;;;;5010613;28;20426;-66
2021/03/23 06:51:16;;;;;;;22.40;12.60;;;6.50;99.90;;;;;;5010205;28;20431;-67
2021/03/23 06:53:43;;;;;;;18.00;12.13;;;6.40;99.90;;;;;;5010612;28;20431;-67
2021/03/23 06:56:16;;;;;;;21.43;11.50;;;6.50;99.90;;;;;;5010116;28;20451;-66
2021/03/23 06:58:42;;;;;;;24.23;13.00;;;6.50;99.90;;;;;;5010339;28;20821;-67
2021/03/23 07:01:18;;;;;;;22.33;11.57;;;6.60;99.90;;;;;;5010009;28;20407;-66
2021/03/23 07:03:50;;;;;;;23.47;12.30;;;6.60;99.90;;;;;;5010269;28;20179;-66
2021/03/23 07:06:18;;;;;;;23.13;12.30;;;6.60;99.90;;;;;;5010318;28;20419;-67
2021/03/23 07:08:43;;;;;;;22.03;12.60;;;6.70;99.90;;;;;;5010268;28;20928;-68
2021/03/23 07:11:09;;;;;;;21.83;11.80;;;6.70;99.90;;;;;;5010329;28;20454;-69
2021/03/23 07:13:38;;;;;;;23.70;13.23;;;6.80;99.90;;;;;;5010392;28;20184;-67
2021/03/23 07:16:09;;;;;;;23.80;12.90;;;6.80;99.90;;;;;;5010129;28;20646;-65
2021/03/23 07:18:45;;;;;;;18.93;11.27;;;6.80;99.90;;;;;;5010507;28;20442;-66
2021/03/23 07:21:22;;;;;;;24.20;12.30;;;6.90;99.90;;;;;;5010153;28;20804;-68
2021/03/23 07:24:21;;;;;;;17.60;11.90;;;6.90;99.90;;;;;;5010315;28;20820;-66
2021/03/23 07:27:20;;;;;;;20.70;11.17;;;7.00;99.90;;;;;;5009893;28;20420;-68
2021/03/23 07:29:47;;;;;;;23.73;10.97;;;7.00;99.90;;;;;;4967531;28;20430;-65
2021/03/23 07:32:37;;;;;;;23.23;11.20;;;7.10;99.90;;;;;;5009585;28;20506;-65
2021/03/23 07:35:31;;;;;;;16.73;11.60;;;7.10;99.90;;;;;;5010897;28;20999;-67
2021/03/23 07:38:12;;;;;;;22.80;12.80;;;7.20;99.90;;;;;;5004053;28;20420;-66
2021/03/23 07:40:45;;;;;;;18.43;11.27;;;7.20;99.90;;;;;;5009963;28;20418;-66
2021/03/23 07:43:16;;;;;;;20.87;12.17;;;7.30;99.90;;;;;;5009810;28;20917;-66
2021/03/23 07:45:52;;;;;;;21.13;11.93;;;7.30;99.90;;;;;;5009841;28;20423;-67
2021/03/23 07:48:44;;;;;;;20.17;11.67;;;7.30;99.90;;;;;;5009717;28;20433;-66
2021/03/23 07:51:28;;;;;;;24.77;13.60;;;7.40;99.90;;;;;;4981545;28;20423;-66
2021/03/23 07:54:22;;;;;;;18.60;11.67;;;7.50;99.90;;;;;;5009984;28;20419;-68
2021/03/23 07:57:22;;;;;;;17.83;10.20;;;7.50;99.90;;;;;;5001422;28;20826;-67
2021/03/23 08:00:09;;;;;;;16.40;10.63;;;7.70;99.90;;;;;;5009402;28;20477;-68
2021/03/23 08:02:55;;;;;;;18.10;11.47;;;7.80;99.90;;;;;;5009859;28;20415;-67
2021/03/23 08:05:31;;;;;;;16.53;10.03;;;7.90;99.90;;;;;;5009937;28;20501;-66
2021/03/23 08:08:28;;;;;;;16.00;9.90;;;8.00;99.90;;;;;;5010554;28;20411;-65
2021/03/23 08:11:10;;;;;;;19.87;10.00;;;8.10;99.90;;;;;;5013749;28;20827;-67
2021/03/23 08:13:49;;;;;;;14.70;10.43;;;8.10;99.90;;;;;;5013606;28;20415;-66
2021/03/23 08:16:47;;;;;;;16.83;9.77;;;8.20;99.60;;;;;;5013615;28;20462;-67
2021/03/23 08:19:51;;;;;;;16.57;10.27;;;8.10;98.60;;;;;;5013476;28;20801;-67
2021/03/23 08:22:43;;;;;;;13.47;9.50;;;8.20;98.80;;;;;;5013567;28;20423;-66
2021/03/23 08:25:21;;;;;;;15.43;10.10;;;8.40;97.40;;;;;;5013271;28;20913;-67
2021/03/23 08:28:11;;;;;;;20.27;10.10;;;8.50;97.40;;;;;;5012853;28;20552;-67
2021/03/23 08:31:14;;;;;;;15.93;11.03;;;8.60;96.50;;;;;;5013152;28;20424;-66
2021/03/23 08:34:15;;;;;;;15.70;10.20;;;8.60;95.80;;;;;;5014368;28;20418;-64
2021/03/23 08:37:18;;;;;;;16.53;10.90;;;8.50;96.40;;;;;;5013099;28;20458;-67
2021/03/23 08:40:21;;;;;;;21.37;10.73;;;8.50;97.40;;;;;;5012854;28;20418;-65
2021/03/23 08:42:48;;;;;;;20.10;10.73;;;8.60;96.30;;;;;;5012957;28;20494;-67
2021/03/23 08:45:16;;;;;;;15.60;10.00;;;8.70;95.70;;;;;;5012871;28;20502;-68
2021/03/23 08:47:49;;;;;;;17.77;10.93;;;8.60;95.70;;;;;;5012799;28;20474;-66
2021/03/23 08:50:31;;;;;;;15.83;9.63;;;8.80;96.00;;;;;;5012645;28;20443;-66
2021/03/23 08:52:59;;;;;;;20.40;10.37;;;8.90;95.00;;;;;;5012818;28;20470;-66
2021/03/23 08:55:28;;;;;;;15.10;10.47;;;9.00;93.60;;;;;;5012857;28;20463;-67
2021/03/23 08:58:09;;;;;;;16.40;10.50;;;9.10;92.80;;;;;;5012804;28;20255;-67
2021/03/23 09:00:35;;;;;;;15.33;9.97;;;9.20;92.40;;;;;;5012763;28;20446;-67
2021/03/23 09:03:11;;;;;;;20.80;10.37;;;9.20;91.40;;;;;;5012591;28;20407;-69
2021/03/23 09:06:05;;;;;;;13.93;9.33;;;9.40;90.80;;;;;;5012385;28;20259;-65
2021/03/23 09:08:44;;;;;;;14.40;9.93;;;9.50;90.40;;;;;;5012169;28;20450;-66
2021/03/23 09:11:10;;;;;;;19.93;10.07;;;9.50;90.00;;;;;;4994671;28;20817;-66
2021/03/23 09:13:35;;;;;;;12.83;9.60;;;9.50;88.40;;;;;;5012304;28;20423;-66
2021/03/23 09:16:26;;;;;;;16.13;11.20;;;9.70;88.10;;;;;;5012363;28;20222;-66
2021/03/23 09:19:03;;;;;;;19.23;11.63;;;9.80;86.50;;;;;;5001258;28;20217;-64
2021/03/23 09:21:52;;;;;;;16.97;10.97;;;9.90;88.60;;;;;;5011772;28;20176;-67
2021/03/23 09:24:35;;;;;;;15.77;11.13;;;9.90;85.70;;;;;;4984452;28;20408;-66
2021/03/23 09:27:03;;;;;;;16.43;10.60;;;10.00;86.90;;;;;;5012106;28;20204;-67
2021/03/23 09:29:37;;;;;;;15.53;10.70;;;9.80;87.40;;;;;;5011997;28;20945;-68
2021/03/23 09:32:13;;;;;;;17.20;10.23;;;9.70;88.40;;;;;;5012159;28;20434;-68
2021/03/23 09:37:52;;;;;;;19.70;10.93;;;9.60;88.20;;;;;;5030009;28;20415;-68
2021/03/23 09:40:18;;;;;;;19.27;10.60;;;9.80;90.40;;;;;;5030714;28;20824;-68
2021/03/23 09:42:53;;;;;;;16.67;10.83;;;9.90;90.00;;;;;;5025912;28;20446;-68
2021/03/23 09:45:36;;;;;;;17.73;11.30;;;10.10;86.90;;;;;;5030112;28;20199;-68
2021/03/23 09:48:14;;;;;;;16.77;11.40;;;10.10;85.10;;;;;;5013457;28;20187;-68
2021/03/23 09:50:43;;;;;;;17.47;10.97;;;9.90;86.20;;;;;;5031256;28;20410;-70
2021/03/23 09:53:21;;;;;;;15.60;10.40;;;9.90;86.20;;;;;;5031496;28;20473;-68
2021/03/23 09:55:46;;;;;;;14.33;10.93;;;9.90;87.10;;;;;;5031271;28;20457;-67
2021/03/23 09:58:26;;;;;;;14.43;10.17;;;9.90;86.60;;;;;;5031454;28;20642;-69
2021/03/23 10:00:53;;;;;;;13.53;10.00;;;10.00;87.10;;;;;;5031040;28;20184;-70
2021/03/23 10:03:22;;;;;;;16.97;10.90;;;9.80;85.90;;;;;;5012912;28;20537;-71
2021/03/23 10:05:59;;;;;;;15.37;10.73;;;9.80;88.20;;;;;;5022179;28;20443;-70
2021/03/23 10:08:31;;;;;;;18.30;11.37;;;9.80;88.40;;;;;;5030164;28;20449;-68
2021/03/23 10:11:08;;;;;;;20.47;11.77;;;9.90;89.30;;;;;;5025925;28;20944;-69
2021/03/23 10:13:34;;;;;;;15.10;10.33;;;10.10;86.60;;;;;;5011766;28;20607;-68
2021/03/23 10:16:05;;;;;;;14.53;10.40;;;10.10;84.40;;;;;;5010979;28;20236;-69
2021/03/23 10:18:37;;;;;;;16.20;10.13;;;10.30;84.40;;;;;;5010792;28;20172;-68
2021/03/23 10:21:06;;;;;;;13.37;9.70;;;10.20;82.30;;;;;;5010909;28;20176;-70
2021/03/23 10:23:33;;;;;;;14.27;9.53;;;9.70;84.10;;;;;;5030618;28;20449;-67
2021/03/23 10:26:04;;;;;;;14.27;9.67;;;9.50;85.70;;;;;;5030840;28;21011;-69
2021/03/23 10:28:34;;;;;;;16.57;10.60;;;9.50;87.70;;;;;;5031085;28;20411;-68
2021/03/23 10:31:10;;;;;;;15.00;10.63;;;9.60;86.90;;;;;;5015981;28;20436;-68
2021/03/23 10:33:39;;;;;;;16.20;9.47;;;9.70;86.30;;;;;;5029477;28;20410;-68
2021/03/23 10:36:07;;;;;;;11.57;9.33;;;9.90;85.00;;;;;;5021244;28;20817;-70
2021/03/23 10:38:37;;;;;;;17.10;10.60;;;10.10;84.00;;;;;;5010856;28;20200;-68
2021/03/23 10:41:17;;;;;;;14.33;9.17;;;10.10;85.40;;;;;;5013521;28;20180;-67
2021/03/23 10:43:48;;;;;;;15.30;9.47;;;10.20;83.30;;;;;;5026911;28;20199;-68
2021/03/23 10:46:27;;;;;;;14.83;10.07;;;10.10;83.00;;;;;;5029620;28;20205;-69
2021/03/23 10:48:53;;;;;;;15.30;9.80;;;10.10;83.30;;;;;;5030503;28;20509;-70
2021/03/23 10:51:28;;;;;;;15.47;10.80;;;10.10;82.00;;;;;;5030455;28;20509;-69
2021/03/23 10:54:12;;;;;;;21.37;11.77;;;10.10;83.30;;;;;;5022464;28;20262;-69
2021/03/23 10:56:43;;;;;;;17.53;10.00;;;10.10;81.60;;;;;;5029843;28;20207;-68
2021/03/23 10:59:21;;;;;;;17.23;9.73;;;10.20;83.40;;;;;;5024829;28;20515;-68
2021/03/23 11:02:16;;;;;;;14.90;10.23;;;10.20;81.90;;;;;;5019049;28;20176;-69
2021/03/23 11:05:01;;;;;;;17.07;10.63;;;10.40;83.60;;;;;;5015600;28;20199;-67
2021/03/23 11:07:29;;;;;;;14.37;11.10;;;10.30;80.80;;;;;;5010546;28;20638;-68
2021/03/23 11:09:58;;;;;;;19.13;10.30;;;10.30;82.30;;;;;;4995318;28;20176;-70
2021/03/23 11:12:25;;;;;;;17.67;10.27;;;10.40;82.10;;;;;;4995204;28;20172;-69
2021/03/23 11:14:52;;;;;;;20.43;9.67;;;10.50;80.50;;;;;;5010159;28;20196;-69
2021/03/23 11:17:24;;;;;;;15.20;9.63;;;10.40;82.50;;;;;;5010748;28;20173;-70
2021/03/23 11:19:54;;;;;;;13.13;9.40;;;10.20;80.00;;;;;;5023753;28;20515;-70
2021/03/23 11:22:26;;;;;;;15.93;10.17;;;10.10;80.50;;;;;;5024719;28;20207;-68
2021/03/23 11:24:52;;;;;;;16.63;9.50;;;10.00;83.70;;;;;;5015479;28;20643;-69
2021/03/23 11:27:18;;;;;;;13.40;10.13;;;10.20;83.00;;;;;;5029698;28;20187;-69
2021/03/23 11:29:44;;;;;;;14.30;8.83;;;10.20;80.40;;;;;;5017621;28;20229;-69
2021/03/23 11:32:09;;;;;;;14.70;9.63;;;10.10;81.80;;;;;;5029943;28;20262;-68
2021/03/23 11:34:35;;;;;;;12.70;9.70;;;10.20;82.40;;;;;;5023839;28;20267;-69
2021/03/23 11:37:01;;;;;;;14.47;9.40;;;10.20;81.60;;;;;;5010044;28;20616;-70
2021/03/23 11:39:26;;;;;;;17.70;9.63;;;9.80;80.80;;;;;;4992414;28;20190;-67
2021/03/23 11:42:04;;;;;;;13.67;9.27;;;9.80;82.70;;;;;;5009999;28;20610;-68
2021/03/23 11:44:37;;;;;;;12.77;9.67;;;9.80;84.80;;;;;;5013446;28;20175;-67
2021/03/23 11:47:42;;;;;;;18.20;9.87;;;10.00;83.70;;;;;;5013995;28;20769;-68
2021/03/23 11:50:18;;;;;;;14.87;10.40;;;10.10;84.00;;;;;;5011764;28;20463;-68
2021/03/23 11:52:44;;;;;;;16.23;10.33;;;10.10;84.10;;;;;;5012773;28;20415;-69
2021/03/23 11:55:12;;;;;;;17.60;10.70;;;10.10;85.10;;;;;;5013801;28;20196;-67
2021/03/23 11:57:38;;;;;;;15.63;10.20;;;10.10;84.60;;;;;;5013788;28;20172;-69
2021/03/23 12:00:05;;;;;;;15.20;10.43;;;10.20;82.90;;;;;;5014143;28;20169;-69
2021/03/23 12:02:31;;;;;;;15.77;10.90;;;10.10;85.70;;;;;;5013479;28;20642;-68
2021/03/23 12:04:57;;;;;;;13.97;10.43;;;10.10;85.10;;;;;;5013877;28;20414;-67
2021/03/23 12:07:45;;;;;;;13.47;10.67;;;10.00;86.60;;;;;;5013468;28;20180;-68
2021/03/23 12:10:17;;;;;;;15.23;10.47;;;10.00;85.70;;;;;;4995881;28;20267;-69
2021/03/23 12:13:24;;;;;;;16.33;10.00;;;9.90;86.70;;;;;;5013084;28;20418;-69
2021/03/23 12:15:54;;;;;;;17.43;9.83;;;10.10;85.80;;;;;;4991844;28;20451;-70
2021/03/23 12:18:21;;;;;;;17.47;9.23;;;10.20;83.20;;;;;;5013136;28;20408;-68
2021/03/23 12:20:54;;;;;;;12.93;8.67;;;10.30;83.00;;;;;;5013587;28;20611;-67
2021/03/23 12:23:21;;;;;;;13.07;8.90;;;10.30;81.80;;;;;;5012016;28;20925;-71
2021/03/23 12:25:47;;;;;;;15.53;9.97;;;10.30;83.00;;;;;;5013413;28;20173;-66
2021/03/23 12:28:12;;;;;;;12.70;9.03;;;10.40;81.90;;;;;;5012893;28;20196;-68
2021/03/23 12:30:38;;;;;;;12.37;8.30;;;10.50;81.00;;;;;;5013446;28;20173;-69
2021/03/23 12:33:03;;;;;;;14.93;8.50;;;10.60;81.70;;;;;;4995655;28;20184;-67
2021/03/23 12:35:29;;;;;;;13.70;9.40;;;10.60;81.40;;;;;;5014439;28;20580;-68
2021/03/23 12:37:59;;;;;;;14.13;8.70;;;10.40;81.90;;;;;;4995571;28;20263;-68
2021/03/23 12:40:27;;;;;;;15.40;9.83;;;10.50;84.20;;;;;;5013008;28;20188;-70
2021/03/23 12:42:55;;;;;;;14.93;9.57;;;10.60;83.00;;;;;;5013291;28;20180;-70
2021/03/23 12:45:30;;;;;;;13.83;9.47;;;10.60;81.60;;;;;;5013026;28;20173;-67
2021/03/23 12:47:56;;;;;;;13.47;9.13;;;10.70;81.20;;;;;;5013002;28;20551;-68
2021/03/23 12:50:23;;;;;;;12.43;8.23;;;10.80;81.10;;;;;;5013029;28;20577;-66
2021/03/23 12:52:51;;;;;;;10.20;8.07;;;10.90;81.10;;;;;;5013236;28;20188;-69
2021/03/23 12:55:21;;;;;;;11.37;8.10;;;10.60;79.80;;;;;;5011983;28;20677;-67
2021/03/23 12:57:46;;;;;;;16.20;8.50;;;10.50;80.70;;;;;;5012757;28;20172;-69
2021/03/23 13:00:23;;;;;;;12.57;8.33;;;10.50;83.50;;;;;;5012749;28;20180;-69
2021/03/23 13:02:49;;;;;;;11.43;7.57;;;10.40;79.50;;;;;;5012691;28;20176;-68